100LL.CA
Aviation Fuel Pricing for Canadians
Please upgrade your browser - Tested with IE9, FireFox, Chrome, Safari

Fuel Prices Airport Info Airport List METAR / TAF Kneeboard RSS

Reference Airport: Port Hawkesbury, NS
N 45 39 23   W 061 22 06

CYPD Port Hawkesbury, NS
WEATHER
METARCYPD 010500Z AUTO 35003KT 9SM BKN220 OVC240 M00/M05 A3022 RMK SLP241
REF N 45 39 23  W 061 22 06    2.1N    19°W (2013)
UTC-4(3)    Elev 373    A5003 LO8 HI6 CAP
OPR Muni 902-625-2206/5053 or 902-631-1512 Fax 902-625-7019
Reg
PFA-1 12-22Z‡ C-2,3,4,5,6
CUSTAOE/15 888-226-7277
FLT PLN NOTAM FILE CYQY
FIC Halifax 866-WXBRIEF or (French) 866-GOMÉTÉO (Toll free within Canada) or 866-541-4106 (Toll free within Canada & USA). Flt Plns by Fax 902-873-6112 & include phone numbers where pilot can be reached prior to dep.
ACC(IFR only) Moncton 506-867-7177 or 866-480-8200.
WXMETAR AUTO H24 (see COMM) WxCam
SERVICES Call out chg after hrs 902-625-2206/902-625-5053 PN
FUEL100LL, JA-1 12-22Z‡
PRICES100LL public: 2.420; JETA: 2.070; current as of 2014-06-12.
OIL15W50
S1,2,3,4,5,6
RWY DATARwy 11(109°)/29(289°) 5000x150 asphalt Rwy 29 down 0.82%
RCROpr Ltd win maint
LIGHTING11-(TE ME), 29-(TE ME) ARCAL-122.8 key mic 3 times
COMM
DRCOHalifax rdo 123.375 (FISE) 126.7 (bcst)
ATFUNICOM 122.8 1230-2130Z‡, O/T tfc 122.8 5NM 3400 ASL
AWOS128.3
NAV
NDBPD 229 (L) N45 39 19 W61 16 10
CAUTIONOcsl blasting by NOTAM to 1600 ASL 2NM SW airport.
Effective 0901Z 02 March 2017 to 0901Z 27 April 2017